Andover, Massachusetts
Current Conditions -  °F | °C
As of 12:54 AM on Monday 22 Dec 2014 (Local Time) from KLWM Reporting Station
Overcast Overcast  
Wind Chill: 26°   Ceiling: 5500
Heat Index: 32°   Visibility: 10mi
Dew Point: 23°   Wind: 6mph
Humidity: 69%   Direction: 360°N
Pressure: 30.38"   Gusts: NA
Location:  42.65°N, 71.14°W
Report Text: KLWM 220554Z AUTO 36005KT 10SM OVC055 00/M05 A3038 RMK AO2 SLP288 T00001050 10006 20000 58001
Loading
Personal Weather Stations






























Interactive Weather Map New forecast layout! Learn more

10-Day Weather Forecast

Advertisements
Track Severe Weather on mobile